Time;durP1;ratioP1;P1;durP2;ratioP2;P2;SDS_P1;SDS_P2;PMS_P1;PMS_P2;Temp;Humidity;BMP_temperature;BMP_pressure;BME280_temperature;BME280_humidity;BME280_pressure;Samples;Min_cycle;Max_cycle;Signal;HPM_P1;HPM_P2
2021/09/15 00:00:02;;;;;;;4.47;4.18;;;22.40;67.60;;;;;;4990590;28;20356;-83
2021/09/15 00:02:28;;;;;;;4.50;4.30;;;22.40;67.60;;;;;;4995263;28;20475;-83
2021/09/15 00:04:54;;;;;;;4.25;4.05;;;22.40;67.70;;;;;;4978170;28;20034;-83
2021/09/15 00:07:20;;;;;;;4.32;3.70;;;22.40;67.70;;;;;;4993182;28;20053;-83
2021/09/15 00:09:46;;;;;;;4.03;3.83;;;22.40;67.80;;;;;;4995667;28;20034;-83
2021/09/15 00:12:12;;;;;;;3.85;3.65;;;22.30;67.80;;;;;;4986149;28;20045;-83
2021/09/15 00:14:38;;;;;;;4.32;4.13;;;22.30;67.90;;;;;;5003760;28;20041;-83
2021/09/15 00:17:05;;;;;;;4.13;3.92;;;22.30;67.90;;;;;;4992587;28;20057;-83
2021/09/15 00:19:31;;;;;;;3.80;3.60;;;22.30;68.00;;;;;;4995948;28;20046;-83
2021/09/15 00:21:57;;;;;;;4.88;3.70;;;22.30;68.10;;;;;;5028296;28;20030;-83
2021/09/15 00:24:23;;;;;;;3.72;3.53;;;22.20;68.10;;;;;;4998184;28;20045;-83
2021/09/15 00:26:49;;;;;;;4.70;4.40;;;22.20;68.10;;;;;;4996256;28;20042;-83
2021/09/15 00:29:15;;;;;;;4.43;4.13;;;22.20;68.20;;;;;;4998486;28;20022;-83
2021/09/15 00:31:41;;;;;;;7.78;4.10;;;22.20;68.20;;;;;;4992390;28;20039;-83
2021/09/15 00:34:07;;;;;;;4.65;4.35;;;22.20;68.30;;;;;;4996170;28;20043;-83
2021/09/15 00:36:33;;;;;;;4.45;4.15;;;22.20;68.20;;;;;;4995179;28;20043;-83
2021/09/15 00:38:59;;;;;;;13.40;4.53;;;22.20;68.30;;;;;;4977489;28;20046;-83
2021/09/15 00:41:25;;;;;;;4.45;4.25;;;22.10;68.20;;;;;;4986877;28;20042;-83
2021/09/15 00:44:10;;;;;;;4.35;4.15;;;22.10;68.30;;;;;;4997171;28;20468;-82
2021/09/15 00:46:39;;;;;;;4.00;3.80;;;22.10;68.40;;;;;;4979723;28;20038;-82
2021/09/15 00:49:05;;;;;;;4.78;4.38;;;22.00;68.40;;;;;;4994373;28;20037;-83
2021/09/15 00:51:35;;;;;;;4.40;4.20;;;22.00;68.40;;;;;;4992830;28;20042;-83
2021/09/15 00:54:04;;;;;;;3.88;3.67;;;22.00;68.50;;;;;;4993848;28;20030;-83
2021/09/15 00:56:30;;;;;;;4.25;3.95;;;22.00;68.50;;;;;;4990199;28;20037;-83
2021/09/15 00:58:56;;;;;;;3.78;3.58;;;21.90;68.50;;;;;;5005122;28;20034;-82
2021/09/15 01:01:22;;;;;;;4.25;3.95;;;21.90;69.40;;;;;;4998746;28;20022;-83
2021/09/15 01:03:48;;;;;;;5.05;4.47;;;21.90;68.70;;;;;;4994248;28;20500;-83
2021/09/15 01:06:14;;;;;;;4.45;4.25;;;21.90;68.80;;;;;;4993846;28;20374;-83
2021/09/15 01:08:41;;;;;;;4.28;4.07;;;21.80;68.80;;;;;;5001153;28;20414;-83
2021/09/15 01:11:10;;;;;;;4.10;3.90;;;21.80;68.80;;;;;;4990517;28;20033;-83
2021/09/15 01:13:37;;;;;;;4.18;3.95;;;21.80;68.90;;;;;;5006953;28;20474;-83
2021/09/15 01:16:04;;;;;;;4.72;4.43;;;21.80;69.00;;;;;;5019472;28;20046;-83
2021/09/15 01:18:31;;;;;;;5.03;4.60;;;21.70;69.00;;;;;;5003298;28;20042;-83
2021/09/15 01:20:57;;;;;;;8.65;4.60;;;21.60;69.00;;;;;;5010482;28;20035;-83
2021/09/15 01:23:23;;;;;;;4.85;4.65;;;21.70;69.10;;;;;;5010200;28;20030;-83
2021/09/15 01:25:49;;;;;;;5.15;4.85;;;21.60;69.20;;;;;;5003195;28;20047;-81
2021/09/15 01:28:15;;;;;;;5.20;4.90;;;21.60;69.20;;;;;;5044335;28;20026;-83
2021/09/15 01:30:42;;;;;;;4.88;4.68;;;21.60;69.20;;;;;;5007293;28;20037;-83
2021/09/15 01:33:12;;;;;;;4.88;4.63;;;21.60;69.20;;;;;;4999856;28;20030;-83
2021/09/15 01:35:38;;;;;;;5.18;4.88;;;21.60;69.30;;;;;;4999332;28;20041;-83
2021/09/15 01:38:04;;;;;;;9.02;4.78;;;21.50;69.20;;;;;;4999343;28;20042;-83
2021/09/15 01:40:31;;;;;;;4.68;4.22;;;21.50;69.30;;;;;;4998382;28;20418;-83
2021/09/15 01:42:57;;;;;;;4.18;3.97;;;21.50;70.10;;;;;;5011797;28;20031;-83
2021/09/15 01:45:23;;;;;;;4.95;4.60;;;21.40;69.30;;;;;;4999391;28;20374;-82
2021/09/15 01:47:49;;;;;;;4.97;4.53;;;21.40;69.40;;;;;;5005850;28;20049;-82
2021/09/15 01:50:15;;;;;;;4.68;4.38;;;21.40;69.50;;;;;;5003276;28;20625;-82
2021/09/15 01:52:41;;;;;;;4.40;4.20;;;21.40;69.50;;;;;;5035838;28;20034;-82
2021/09/15 01:55:08;;;;;;;4.40;4.20;;;21.40;69.50;;;;;;4998702;28;20037;-82
2021/09/15 01:57:34;;;;;;;4.78;4.32;;;21.40;69.50;;;;;;4995637;28;20090;-83
2021/09/15 02:00:00;;;;;;;4.75;4.55;;;21.40;69.60;;;;;;4995408;28;20044;-83
2021/09/15 02:02:26;;;;;;;4.15;3.95;;;21.40;69.60;;;;;;4983449;28;20026;-83
2021/09/15 02:04:53;;;;;;;4.82;4.53;;;21.40;69.70;;;;;;4986706;28;20041;-83
2021/09/15 02:07:19;;;;;;;4.30;4.10;;;21.30;69.60;;;;;;4971121;28;20045;-83
2021/09/15 02:09:45;;;;;;;4.55;4.30;;;21.30;69.70;;;;;;4988581;28;20103;-83
2021/09/15 02:12:11;;;;;;;4.45;4.25;;;21.30;69.70;;;;;;4988069;28;20026;-83
2021/09/15 02:14:37;;;;;;;3.90;3.70;;;21.30;69.80;;;;;;4995071;28;20031;-83
2021/09/15 02:17:03;;;;;;;3.97;3.78;;;21.30;69.80;;;;;;4987169;28;20054;-83
2021/09/15 02:19:33;;;;;;;4.18;3.97;;;21.20;69.80;;;;;;5008940;28;20054;-82
2021/09/15 02:21:59;;;;;;;4.32;4.13;;;21.20;69.80;;;;;;4997646;28;20029;-82
2021/09/15 02:24:25;;;;;;;5.00;4.65;;;21.20;69.90;;;;;;4995157;28;20030;-82
2021/09/15 02:26:51;;;;;;;4.63;4.28;;;21.20;69.90;;;;;;4993588;28;20518;-83
2021/09/15 02:29:17;;;;;;;4.03;3.83;;;21.20;70.00;;;;;;5032744;28;20034;-82
2021/09/15 02:31:43;;;;;;;4.15;3.95;;;21.10;70.00;;;;;;5004209;28;20034;-83
2021/09/15 02:34:09;;;;;;;3.80;3.60;;;21.10;70.00;;;;;;4999320;28;20044;-83
2021/09/15 02:36:36;;;;;;;4.05;3.85;;;21.10;70.10;;;;;;4982490;28;20053;-82
2021/09/15 02:39:02;;;;;;;4.80;4.40;;;21.10;70.10;;;;;;5002298;28;20030;-83
2021/09/15 02:41:28;;;;;;;3.72;3.53;;;21.10;70.20;;;;;;4989343;28;20033;-82
2021/09/15 02:43:54;;;;;;;4.13;3.92;;;21.10;70.20;;;;;;4983003;28;20034;-82
2021/09/15 02:46:20;;;;;;;3.97;3.67;;;21.00;70.20;;;;;;5004685;28;20030;-83
2021/09/15 02:48:46;;;;;;;4.63;3.95;;;21.00;70.20;;;;;;4997416;28;20022;-83
2021/09/15 02:51:12;;;;;;;4.03;3.83;;;21.00;70.30;;;;;;4995479;28;20034;-82
2021/09/15 02:53:38;;;;;;;4.10;3.90;;;21.00;70.40;;;;;;5005157;28;20055;-82
2021/09/15 02:56:04;;;;;;;3.70;3.50;;;21.00;70.40;;;;;;5001285;28;20399;-83
2021/09/15 02:58:31;;;;;;;3.60;3.30;;;21.00;70.50;;;;;;5004337;28;20498;-81
2021/09/15 03:00:57;;;;;;;3.92;3.72;;;20.90;70.40;;;;;;5026176;28;20034;-83
2021/09/15 03:03:23;;;;;;;3.80;3.60;;;20.90;70.40;;;;;;4997137;28;20041;-82
2021/09/15 03:05:49;;;;;;;4.10;3.90;;;20.90;70.40;;;;;;4999039;28;20038;-82
2021/09/15 03:08:15;;;;;;;5.88;3.38;;;20.90;70.40;;;;;;5001363;28;20390;-83
2021/09/15 03:10:41;;;;;;;4.53;4.22;;;20.90;70.40;;;;;;4981226;28;20090;-82
2021/09/15 03:13:07;;;;;;;3.60;3.40;;;20.90;70.40;;;;;;5010305;28;20386;-83
2021/09/15 03:15:33;;;;;;;3.67;3.47;;;20.90;70.40;;;;;;4998145;28;20663;-82
2021/09/15 03:17:59;;;;;;;3.70;3.50;;;20.90;70.40;;;;;;4997309;28;20336;-82
2021/09/15 03:20:25;;;;;;;3.63;3.42;;;20.90;70.40;;;;;;4998720;28;20034;-83
2021/09/15 03:22:51;;;;;;;3.78;3.58;;;20.90;70.40;;;;;;4997756;28;20038;-83
2021/09/15 03:25:17;;;;;;;3.72;3.53;;;20.90;70.40;;;;;;4997783;28;20601;-83
2021/09/15 03:27:44;;;;;;;4.03;3.83;;;20.90;70.40;;;;;;4996295;28;20033;-83
2021/09/15 03:30:10;;;;;;;4.03;3.75;;;20.90;70.50;;;;;;4998820;28;20025;-83
2021/09/15 03:32:36;;;;;;;3.42;3.25;;;20.90;70.60;;;;;;4995125;28;20046;-82
2021/09/15 03:35:02;;;;;;;3.50;3.30;;;20.90;70.60;;;;;;4994454;28;20046;-83
2021/09/15 03:37:28;;;;;;;3.60;3.38;;;20.90;70.60;;;;;;5010562;28;20026;-83
2021/09/15 03:39:54;;;;;;;3.50;3.30;;;20.90;70.60;;;;;;5028032;28;20514;-82
2021/09/15 03:42:21;;;;;;;3.20;3.10;;;21.00;70.60;;;;;;4998604;28;20025;-84
2021/09/15 03:44:47;;;;;;;3.47;3.28;;;21.00;70.50;;;;;;4998547;28;20403;-86
2021/09/15 03:47:13;;;;;;;3.53;3.33;;;21.00;70.50;;;;;;4997659;28;20027;-86
2021/09/15 03:49:39;;;;;;;3.72;3.53;;;21.00;70.50;;;;;;4977001;28;20415;-86
2021/09/15 03:52:05;;;;;;;4.10;3.80;;;21.00;70.60;;;;;;5030443;28;20026;-86
2021/09/15 03:54:32;;;;;;;3.85;3.65;;;21.00;70.60;;;;;;4997423;28;20038;-86
2021/09/15 03:56:58;;;;;;;3.80;3.60;;;21.00;70.70;;;;;;4994828;28;20033;-86
2021/09/15 03:59:24;;;;;;;3.28;3.13;;;21.00;70.70;;;;;;5006939;28;20053;-85
2021/09/15 04:01:50;;;;;;;3.53;3.33;;;21.00;70.70;;;;;;5000698;28;20482;-84
2021/09/15 04:04:16;;;;;;;3.78;3.50;;;21.00;70.80;;;;;;5029812;28;20038;-86
2021/09/15 04:06:42;;;;;;;3.40;3.20;;;21.00;70.90;;;;;;4974555;28;20046;-86
2021/09/15 04:09:08;;;;;;;3.10;3.00;;;21.00;70.90;;;;;;4994582;28;20029;-85
2021/09/15 04:11:35;;;;;;;3.78;3.25;;;21.00;70.90;;;;;;4996359;28;20034;-86
2021/09/15 04:14:01;;;;;;;3.55;3.33;;;21.00;70.90;;;;;;5002673;28;20042;-85
2021/09/15 04:16:27;;;;;;;3.40;3.30;;;21.00;70.90;;;;;;4995455;28;20034;-86
2021/09/15 04:18:53;;;;;;;3.28;3.08;;;21.00;71.00;;;;;;5003183;28;20037;-86
2021/09/15 04:21:19;;;;;;;3.70;3.50;;;21.00;70.90;;;;;;4999830;28;20034;-86
2021/09/15 04:31:44;;;;;;;3.35;3.15;;;20.90;71.10;;;;;;4995967;28;20038;-85
2021/09/15 04:34:10;;;;;;;3.63;3.42;;;20.90;71.10;;;;;;5003148;28;20033;-85
2021/09/15 04:36:36;;;;;;;3.90;3.60;;;20.90;71.10;;;;;;5000548;28;20057;-85
2021/09/15 04:39:02;;;;;;;3.50;3.30;;;20.90;71.10;;;;;;5000165;28;20042;-84
2021/09/15 04:41:28;;;;;;;3.75;3.45;;;21.00;71.20;;;;;;4999014;28;20022;-85
2021/09/15 04:43:54;;;;;;;3.40;3.20;;;21.00;71.20;;;;;;4992911;28;20034;-85
2021/09/15 04:46:21;;;;;;;3.28;3.17;;;21.00;71.20;;;;;;5000243;28;20407;-85
2021/09/15 04:48:47;;;;;;;3.50;3.30;;;21.00;71.20;;;;;;5002131;28;20034;-85
2021/09/15 04:51:13;;;;;;;3.38;3.28;;;21.00;71.30;;;;;;4996411;28;20120;-85
2021/09/15 04:53:39;;;;;;;4.18;3.75;;;21.00;72.10;;;;;;4984926;28;20479;-85
2021/09/15 04:56:05;;;;;;;4.00;3.40;;;21.00;71.30;;;;;;4996195;28;20430;-85
2021/09/15 04:58:31;;;;;;;3.90;3.70;;;21.00;71.30;;;;;;5003439;28;20026;-85
2021/09/15 05:00:58;;;;;;;3.85;3.50;;;21.00;71.30;;;;;;5031774;28;20526;-85
2021/09/15 05:03:24;;;;;;;3.80;3.60;;;21.00;71.40;;;;;;4992567;28;20034;-85
2021/09/15 05:05:50;;;;;;;3.85;3.65;;;21.00;71.40;;;;;;4997209;28;20029;-83
2021/09/15 05:08:16;;;;;;;3.67;3.38;;;21.10;71.50;;;;;;5003625;28;20392;-85
2021/09/15 05:10:42;;;;;;;4.00;3.80;;;21.10;71.50;;;;;;4991169;28;20050;-85
2021/09/15 05:13:08;;;;;;;3.75;3.50;;;21.00;71.40;;;;;;5034415;28;20026;-85
2021/09/15 05:15:34;;;;;;;3.70;3.50;;;21.10;71.50;;;;;;5002037;28;20057;-85
2021/09/15 05:18:00;;;;;;;4.38;4.10;;;21.10;71.50;;;;;;5003652;28;20025;-85
2021/09/15 05:20:26;;;;;;;3.75;3.55;;;21.10;71.60;;;;;;5003188;28;20060;-85
2021/09/15 05:22:53;;;;;;;4.47;4.18;;;21.10;71.60;;;;;;4993340;28;20041;-85
2021/09/15 05:25:20;;;;;;;4.22;4.03;;;21.10;71.60;;;;;;5035618;28;20030;-85
2021/09/15 05:27:46;;;;;;;4.20;3.80;;;21.10;71.70;;;;;;4962683;28;20041;-85
2021/09/15 05:30:13;;;;;;;4.22;3.92;;;21.10;71.70;;;;;;4995941;28;20030;-86
2021/09/15 05:32:39;;;;;;;3.85;3.65;;;21.10;71.70;;;;;;4994198;28;20041;-85
2021/09/15 05:35:06;;;;;;;4.93;3.53;;;21.10;71.70;;;;;;4989194;28;20042;-85
2021/09/15 05:37:32;;;;;;;4.40;4.00;;;21.10;71.70;;;;;;4997906;28;20029;-86
2021/09/15 05:39:59;;;;;;;4.63;4.32;;;21.10;71.70;;;;;;4989655;28;20046;-85
2021/09/15 05:42:26;;;;;;;3.40;3.20;;;21.10;72.50;;;;;;4993880;28;20042;-85
2021/09/15 05:44:52;;;;;;;4.20;4.00;;;21.00;71.80;;;;;;4997921;28;20034;-85
2021/09/15 05:47:18;;;;;;;4.25;4.05;;;21.00;71.90;;;;;;4997812;28;20035;-85
2021/09/15 05:49:44;;;;;;;4.32;4.03;;;21.00;71.90;;;;;;5005104;28;20033;-85
2021/09/15 05:52:10;;;;;;;4.00;3.80;;;21.00;72.00;;;;;;4996486;28;20061;-85
2021/09/15 05:54:36;;;;;;;3.60;3.40;;;21.00;72.00;;;;;;4997396;28;20035;-86
2021/09/15 05:57:03;;;;;;;4.13;3.80;;;20.90;72.00;;;;;;4996812;28;20025;-85
2021/09/15 05:59:29;;;;;;;3.53;3.33;;;20.90;72.10;;;;;;4988675;28;20402;-84
2021/09/15 06:01:55;;;;;;;3.67;3.47;;;20.90;72.20;;;;;;5016936;28;20035;-83
2021/09/15 06:04:21;;;;;;;4.47;4.10;;;20.90;72.20;;;;;;4992152;28;20490;-82
2021/09/15 06:06:47;;;;;;;4.00;3.80;;;20.80;72.20;;;;;;4990603;28;20042;-82
2021/09/15 06:09:13;;;;;;;3.75;3.55;;;20.80;72.30;;;;;;4991495;28;20042;-91
2021/09/15 06:11:39;;;;;;;3.60;3.40;;;20.80;72.40;;;;;;5007348;28;20046;-91
2021/09/15 06:14:05;;;;;;;3.80;3.60;;;20.80;72.40;;;;;;4999618;28;20034;-90
2021/09/15 06:16:31;;;;;;;3.83;3.63;;;20.80;72.40;;;;;;4992990;28;20034;-89
2021/09/15 06:18:57;;;;;;;3.85;3.65;;;20.80;72.50;;;;;;4990985;28;20526;-90
2021/09/15 06:21:23;;;;;;;3.30;3.15;;;20.80;72.40;;;;;;5022352;28;20034;-89
2021/09/15 06:23:52;;;;;;;4.40;4.07;;;20.80;72.40;;;;;;4990779;28;20383;-87
2021/09/15 06:26:20;;;;;;;3.72;3.45;;;20.80;72.40;;;;;;5007939;28;20046;-91
2021/09/15 06:28:46;;;;;;;3.75;3.55;;;20.80;72.30;;;;;;4978122;28;20499;-88
2021/09/15 06:31:12;;;;;;;4.20;3.63;;;20.80;72.30;;;;;;4974275;28;20038;-86
2021/09/15 06:33:38;;;;;;;3.40;3.20;;;20.80;72.20;;;;;;4991071;28;20384;-84
2021/09/15 06:36:05;;;;;;;3.30;3.10;;;20.90;72.30;;;;;;5020196;28;20046;-81
2021/09/15 06:38:31;;;;;;;6.47;3.90;;;20.90;72.30;;;;;;4986642;28;20027;-85
2021/09/15 06:40:57;;;;;;;3.78;3.47;;;20.90;72.20;;;;;;4984219;28;20057;-86
2021/09/15 06:43:23;;;;;;;3.42;3.22;;;20.90;72.20;;;;;;4991380;28;20027;-87
2021/09/15 06:45:49;;;;;;;3.33;3.22;;;21.00;72.20;;;;;;5000028;28;20042;-88
2021/09/15 06:48:15;;;;;;;4.13;3.83;;;21.00;72.10;;;;;;5000577;28;20391;-85
2021/09/15 06:50:41;;;;;;;4.00;3.80;;;21.10;72.00;;;;;;4987349;28;20046;-83
2021/09/15 06:53:07;;;;;;;4.18;3.90;;;21.20;72.00;;;;;;5018576;28;20025;-83
2021/09/15 06:55:34;;;;;;;4.05;3.75;;;21.20;71.90;;;;;;5004246;28;20050;-83
2021/09/15 06:58:00;;;;;;;3.75;3.55;;;21.30;71.90;;;;;;5020007;28;20030;-84
2021/09/15 07:00:26;;;;;;;4.85;4.50;;;21.30;71.80;;;;;;5003557;28;20035;-87
2021/09/15 07:02:52;;;;;;;4.53;4.32;;;21.30;71.80;;;;;;5018081;28;20500;-86
2021/09/15 07:05:18;;;;;;;3.88;3.67;;;21.40;71.80;;;;;;5005473;28;20039;-87
2021/09/15 07:07:44;;;;;;;4.75;4.45;;;21.30;71.80;;;;;;4992127;28;20037;-86
2021/09/15 07:10:11;;;;;;;4.35;4.15;;;21.40;71.80;;;;;;4974235;28;20034;-87
2021/09/15 07:12:38;;;;;;;4.47;4.18;;;21.40;71.70;;;;;;5014874;28;20031;-87
2021/09/15 07:15:08;;;;;;;4.90;4.60;;;21.40;71.70;;;;;;4984776;28;20034;-87
2021/09/15 07:17:34;;;;;;;4.65;4.45;;;21.40;71.60;;;;;;4990444;28;20496;-87
2021/09/15 07:20:01;;;;;;;4.40;4.20;;;21.50;71.60;;;;;;5010510;28;20392;-86
2021/09/15 07:22:27;;;;;;;4.28;4.07;;;21.50;71.50;;;;;;4978463;28;20041;-86
2021/09/15 07:24:53;;;;;;;4.97;4.50;;;21.60;71.50;;;;;;5011792;28;20500;-86
2021/09/15 07:27:19;;;;;;;21.83;20.70;;;21.60;71.50;;;;;;4992457;28;20037;-87
2021/09/15 07:29:45;;;;;;;8.05;7.35;;;21.60;71.50;;;;;;4965862;28;20050;-88
2021/09/15 07:32:11;;;;;;;6.25;5.95;;;21.60;71.50;;;;;;5006346;28;20030;-87
2021/09/15 07:34:41;;;;;;;5.13;4.55;;;21.60;71.50;;;;;;5003288;28;20042;-86
2021/09/15 07:37:07;;;;;;;4.50;4.30;;;21.60;71.50;;;;;;5008966;28;20026;-87
2021/09/15 07:39:33;;;;;;;6.72;6.32;;;21.70;71.50;;;;;;5001669;28;20399;-87
2021/09/15 07:41:59;;;;;;;6.22;5.72;;;21.80;71.20;;;;;;4986741;28;20027;-86
2021/09/15 07:44:26;;;;;;;6.18;5.68;;;21.90;71.10;;;;;;4986925;28;20027;-86
2021/09/15 07:46:52;;;;;;;5.40;5.03;;;22.00;71.00;;;;;;4967827;28;20041;-86
2021/09/15 07:49:18;;;;;;;5.32;5.03;;;22.10;70.80;;;;;;4987469;28;20027;-87
2021/09/15 07:51:44;;;;;;;5.78;5.45;;;22.20;70.70;;;;;;4978577;28;20038;-87
2021/09/15 07:54:10;;;;;;;5.53;5.22;;;22.20;70.70;;;;;;4990227;28;20475;-88
2021/09/15 07:56:36;;;;;;;6.63;6.22;;;22.30;70.70;;;;;;5000703;28;20038;-86
2021/09/15 07:59:04;;;;;;;6.20;5.80;;;22.30;70.70;;;;;;4989852;28;20479;-87
2021/09/15 08:01:30;;;;;;;5.72;5.43;;;22.30;70.70;;;;;;5020433;28;20068;-87
2021/09/15 08:03:56;;;;;;;5.35;5.05;;;22.20;70.80;;;;;;5002174;28;20041;-88
2021/09/15 08:06:22;;;;;;;5.70;5.40;;;22.30;70.90;;;;;;4999082;28;20042;-88
2021/09/15 08:08:48;;;;;;;6.47;5.97;;;22.30;70.90;;;;;;5002728;28;20510;-87
2021/09/15 08:11:15;;;;;;;6.07;5.53;;;22.30;70.90;;;;;;4969496;28;20042;-84
2021/09/15 08:13:41;;;;;;;4.97;4.78;;;22.30;70.90;;;;;;4996401;28;20209;-83
2021/09/15 08:16:07;;;;;;;11.05;6.15;;;22.40;71.20;;;;;;4982876;28;20483;-85
2021/09/15 08:18:34;;;;;;;7.22;6.82;;;22.40;70.80;;;;;;4988145;28;20065;-85
2021/09/15 08:21:01;;;;;;;10.43;7.13;;;22.40;70.70;;;;;;4969970;28;20435;-84
2021/09/15 08:23:27;;;;;;;6.95;6.65;;;22.40;70.70;;;;;;4984225;28;20035;-84
2021/09/15 08:25:54;;;;;;;15.38;14.38;;;22.40;70.70;;;;;;4982618;28;20399;-85
2021/09/15 08:28:21;;;;;;;6.55;6.15;;;22.40;70.70;;;;;;4973653;28;20031;-84
2021/09/15 08:30:47;;;;;;;6.10;5.70;;;22.50;71.60;;;;;;5004607;28;20026;-84
2021/09/15 08:33:13;;;;;;;5.63;5.22;;;22.40;70.80;;;;;;5018412;28;20038;-84
2021/09/15 08:35:39;;;;;;;6.00;5.43;;;22.50;70.80;;;;;;4990105;28;20050;-84
2021/09/15 08:38:09;;;;;;;5.95;5.22;;;22.50;70.80;;;;;;4981474;28;20399;-85
2021/09/15 08:40:36;;;;;;;6.28;5.85;;;22.50;70.90;;;;;;4995724;28;20042;-85
2021/09/15 08:43:02;;;;;;;7.22;6.72;;;22.50;70.80;;;;;;4981773;28;20038;-81
2021/09/15 08:45:28;;;;;;;6.25;5.80;;;22.50;70.80;;;;;;4986147;28;20038;-83
2021/09/15 08:47:54;;;;;;;6.72;6.32;;;22.50;70.80;;;;;;4980444;28;20026;-83
2021/09/15 08:50:20;;;;;;;7.05;6.60;;;22.50;70.80;;;;;;4985644;28;20034;-81
2021/09/15 08:52:46;;;;;;;5.45;5.07;;;22.50;70.90;;;;;;4986122;28;20039;-81
2021/09/15 08:55:12;;;;;;;8.05;6.45;;;22.50;70.90;;;;;;4980807;28;20038;-82
2021/09/15 08:57:39;;;;;;;6.13;5.82;;;22.50;70.90;;;;;;4984456;28;20026;-83
2021/09/15 09:00:06;;;;;;;5.78;5.47;;;22.50;70.90;;;;;;4985481;28;20034;-85
2021/09/15 09:02:40;;;;;;;6.93;6.53;;;22.50;71.00;;;;;;4989445;28;20030;-83
2021/09/15 09:05:06;;;;;;;6.72;6.22;;;22.50;71.00;;;;;;4973621;28;20606;-83
2021/09/15 09:07:33;;;;;;;6.30;5.85;;;22.50;71.00;;;;;;5018884;28;20042;-83
2021/09/15 09:10:01;;;;;;;6.32;5.93;;;22.40;71.00;;;;;;4993785;28;20044;-82
2021/09/15 09:12:28;;;;;;;6.30;6.00;;;22.40;71.00;;;;;;4988180;28;20026;-84
2021/09/15 09:15:15;;;;;;;6.55;6.18;;;22.40;71.00;;;;;;5003890;28;20041;-85
2021/09/15 09:17:42;;;;;;;5.80;5.40;;;22.40;71.10;;;;;;5013552;28;20048;-86
2021/09/15 09:20:14;;;;;;;5.50;5.20;;;22.40;71.10;;;;;;4982239;28;20054;-85
2021/09/15 09:23:03;;;;;;;5.43;4.95;;;22.40;71.10;;;;;;5002391;28;20050;-86
2021/09/15 09:25:31;;;;;;;5.57;5.18;;;22.40;71.30;;;;;;4988454;28;20038;-85
2021/09/15 09:27:57;;;;;;;4.70;4.43;;;22.40;71.20;;;;;;5000280;28;20027;-85
2021/09/15 09:30:39;;;;;;;4.80;4.60;;;22.30;71.30;;;;;;4984272;28;20043;-86
2021/09/15 09:33:06;;;;;;;5.00;4.60;;;22.30;71.30;;;;;;4984232;28;20034;-86
2021/09/15 09:35:56;;;;;;;5.20;4.90;;;22.30;71.30;;;;;;4988158;28;20046;-86
2021/09/15 09:38:26;;;;;;;5.63;5.22;;;22.30;71.40;;;;;;4980112;28;20110;-87
2021/09/15 09:41:12;;;;;;;5.63;5.18;;;22.30;71.50;;;;;;4980242;28;20100;-86
2021/09/15 09:43:41;;;;;;;5.47;4.97;;;22.20;71.50;;;;;;4986964;28;20720;-88
2021/09/15 09:46:09;;;;;;;4.70;4.40;;;22.30;71.60;;;;;;4967781;28;20039;-88
2021/09/15 09:48:42;;;;;;;5.28;4.88;;;22.30;71.60;;;;;;4991707;28;20038;-86
2021/09/15 09:51:28;;;;;;;9.23;5.28;;;22.30;71.60;;;;;;4973004;28;20049;-85
2021/09/15 09:54:17;;;;;;;5.82;5.40;;;22.30;71.60;;;;;;4992283;28;20496;-87
2021/09/15 09:56:43;;;;;;;5.53;5.22;;;22.30;71.60;;;;;;5018991;28;20030;-86
2021/09/15 09:59:09;;;;;;;6.03;5.72;;;22.30;71.40;;;;;;4987774;28;20039;-85
2021/09/15 10:01:39;;;;;;;5.30;4.88;;;22.30;71.40;;;;;;4980194;28;20046;-86
2021/09/15 10:04:05;;;;;;;5.22;4.80;;;22.30;71.50;;;;;;5000946;28;20035;-86
2021/09/15 10:06:32;;;;;;;4.35;4.15;;;22.30;71.40;;;;;;4999056;28;20027;-86
2021/09/15 10:08:58;;;;;;;5.28;4.88;;;22.40;71.50;;;;;;4954877;28;20042;-87
2021/09/15 10:11:24;;;;;;;5.00;4.60;;;22.40;71.50;;;;;;4986818;28;20053;-86
2021/09/15 10:13:50;;;;;;;5.65;5.07;;;22.40;71.40;;;;;;4986750;28;20033;-85
2021/09/15 10:16:18;;;;;;;5.25;4.95;;;22.40;71.40;;;;;;4977366;28;20042;-85
2021/09/15 10:19:03;;;;;;;4.97;4.65;;;22.40;71.30;;;;;;4979032;28;20058;-85
2021/09/15 10:21:31;;;;;;;5.00;4.60;;;22.50;71.40;;;;;;5003539;28;20480;-87
2021/09/15 10:23:57;;;;;;;5.38;5.07;;;22.50;71.40;;;;;;4985217;28;20078;-85
2021/09/15 10:26:32;;;;;;;5.68;5.32;;;22.50;71.40;;;;;;4969682;28;20054;-86
2021/09/15 10:29:17;;;;;;;5.47;4.97;;;22.50;71.40;;;;;;5012472;28;20043;-84
2021/09/15 10:31:56;;;;;;;5.10;4.88;;;22.60;71.40;;;;;;5019112;28;20042;-85
2021/09/15 10:34:38;;;;;;;5.05;4.75;;;22.60;71.50;;;;;;4982139;28;20103;-85
2021/09/15 10:37:13;;;;;;;4.75;4.55;;;22.50;71.40;;;;;;4990179;28;20047;-86
2021/09/15 10:39:58;;;;;;;5.38;4.97;;;22.50;71.40;;;;;;5001368;28;20045;-85
2021/09/15 10:42:46;;;;;;;5.22;4.78;;;22.60;71.60;;;;;;4988364;28;20041;-85
2021/09/15 10:45:22;;;;;;;5.28;4.90;;;22.60;71.60;;;;;;4987002;28;20023;-85
2021/09/15 10:47:53;;;;;;;4.95;4.68;;;22.60;71.50;;;;;;4985557;28;20034;-85
2021/09/15 10:50:28;;;;;;;6.25;5.78;;;22.60;71.50;;;;;;4986065;28;20022;-86
2021/09/15 10:53:03;;;;;;;5.82;5.43;;;22.60;71.50;;;;;;4979719;28;20042;-84
2021/09/15 10:55:43;;;;;;;5.82;5.43;;;22.70;71.50;;;;;;5002594;28;20419;-84
2021/09/15 10:58:10;;;;;;;5.80;5.43;;;22.70;71.50;;;;;;4997023;28;20019;-80
2021/09/15 11:00:47;;;;;;;5.05;4.85;;;22.70;71.50;;;;;;4982983;28;20518;-81
2021/09/15 11:03:28;;;;;;;5.50;5.20;;;22.70;71.50;;;;;;4987171;28;20038;-80
2021/09/15 11:05:55;;;;;;;4.97;4.78;;;22.70;71.50;;;;;;4983607;28;20031;-78
2021/09/15 11:08:22;;;;;;;6.05;5.55;;;22.70;71.50;;;;;;4988447;28;20041;-81
2021/09/15 11:10:48;;;;;;;5.32;4.93;;;22.70;71.50;;;;;;4980904;28;20038;-81
2021/09/15 11:13:27;;;;;;;5.03;4.72;;;22.70;71.50;;;;;;4991902;28;20038;-81
2021/09/15 11:15:55;;;;;;;4.55;4.28;;;22.70;71.70;;;;;;5003542;28;20027;-86
2021/09/15 11:18:25;;;;;;;5.05;4.82;;;22.70;71.60;;;;;;4987283;28;20034;-80
2021/09/15 11:20:53;;;;;;;5.03;4.63;;;22.70;71.60;;;;;;5001944;28;20042;-84
2021/09/15 11:23:20;;;;;;;5.00;4.80;;;22.70;71.50;;;;;;5025368;28;20034;-81
2021/09/15 11:25:50;;;;;;;5.28;4.97;;;22.80;71.60;;;;;;5006844;28;20034;-81
2021/09/15 11:28:17;;;;;;;6.70;4.78;;;22.80;71.60;;;;;;5023105;28;20101;-83
2021/09/15 11:30:49;;;;;;;4.60;4.40;;;22.90;71.70;;;;;;4984086;28;20038;-82
2021/09/15 11:33:32;;;;;;;5.25;4.95;;;22.90;71.60;;;;;;4988199;28;20030;-84
2021/09/15 11:36:08;;;;;;;5.45;5.15;;;22.90;71.60;;;;;;4987092;28;21024;-85
2021/09/15 11:38:37;;;;;;;4.70;4.45;;;23.00;71.60;;;;;;4993976;28;20043;-83
2021/09/15 11:41:21;;;;;;;5.75;5.45;;;23.00;71.40;;;;;;4987895;28;20292;-85
2021/09/15 11:43:48;;;;;;;5.93;5.53;;;23.10;71.50;;;;;;5002347;28;20034;-92
2021/09/15 11:46:15;;;;;;;5.43;5.13;;;23.10;71.30;;;;;;5009949;28;20117;-95
2021/09/15 11:48:42;;;;;;;5.65;5.28;;;23.20;71.40;;;;;;5002285;28;20383;-91
2021/09/15 11:51:14;;;;;;;4.93;4.63;;;23.20;71.20;;;;;;5003674;28;20048;-91
2021/09/15 11:53:40;;;;;;;4.72;4.53;;;23.30;71.10;;;;;;4997765;28;20034;-93
2021/09/15 11:56:06;;;;;;;8.52;5.72;;;23.40;71.10;;;;;;5015361;28;20030;-92
2021/09/15 11:58:33;;;;;;;5.55;5.15;;;23.50;70.90;;;;;;5038497;28;20044;-93
2021/09/15 12:00:59;;;;;;;5.18;4.90;;;23.60;70.80;;;;;;5003453;28;20034;-92
2021/09/15 12:03:28;;;;;;;4.82;4.55;;;23.60;70.70;;;;;;5000787;28;20030;-92
2021/09/15 12:05:56;;;;;;;5.47;4.97;;;23.70;70.70;;;;;;4994611;28;20495;-92
2021/09/15 12:08:22;;;;;;;5.30;4.97;;;23.80;70.60;;;;;;4991644;28;20038;-92
2021/09/15 12:10:48;;;;;;;5.15;4.85;;;23.80;70.40;;;;;;5006552;28;20022;-93
2021/09/15 12:13:14;;;;;;;5.60;5.30;;;23.90;70.40;;;;;;4994773;28;20030;-93
2021/09/15 12:15:47;;;;;;;5.15;4.85;;;23.90;70.30;;;;;;4995708;28;20030;-92
2021/09/15 12:18:13;;;;;;;6.07;5.78;;;24.00;70.30;;;;;;4991833;28;20042;-91
2021/09/15 12:20:50;;;;;;;6.30;5.90;;;24.10;70.20;;;;;;5002362;28;20046;-92
2021/09/15 12:23:32;;;;;;;6.25;5.95;;;24.10;70.20;;;;;;5005174;28;20037;-93
2021/09/15 12:25:59;;;;;;;6.03;5.72;;;24.20;70.10;;;;;;4995292;28;20023;-91
2021/09/15 12:28:34;;;;;;;6.38;6.07;;;24.30;69.90;;;;;;5007524;28;20041;-94
2021/09/15 12:31:01;;;;;;;6.47;6.07;;;24.30;69.80;;;;;;5004120;28;20041;-92
2021/09/15 12:33:32;;;;;;;6.57;6.10;;;24.30;69.70;;;;;;4987657;28;20045;-95
2021/09/15 12:36:19;;;;;;;6.70;6.30;;;24.40;69.60;;;;;;4987803;28;20042;-92
2021/09/15 12:38:49;;;;;;;6.43;6.10;;;24.50;69.60;;;;;;5010731;28;20034;-92
2021/09/15 12:41:15;;;;;;;6.53;6.22;;;24.50;69.60;;;;;;4988062;28;20050;-92
2021/09/15 12:43:41;;;;;;;9.40;6.13;;;24.50;69.50;;;;;;5004915;28;20038;-92
2021/09/15 12:46:30;;;;;;;6.82;6.53;;;24.60;69.50;;;;;;5036272;28;20403;-93
2021/09/15 12:48:58;;;;;;;6.68;6.28;;;24.60;69.40;;;;;;4994986;28;20038;-93
2021/09/15 12:51:27;;;;;;;8.05;7.65;;;24.70;69.30;;;;;;5006177;28;20030;-93
2021/09/15 12:53:54;;;;;;;8.77;8.18;;;24.70;69.20;;;;;;4991265;28;20286;-92
2021/09/15 12:56:24;;;;;;;9.00;8.40;;;24.80;69.20;;;;;;5006540;28;20037;-93